sensor_id;sensor_type;location;lat;lon;timestamp;P1;durP1;ratioP1;P2;durP2;ratioP2
1509;SDS011;746;48.688;9.428;2023-04-08T00:00:30;10.83;;;9.83;;
1509;SDS011;746;48.688;9.428;2023-04-08T00:02:52;12.13;;;10.93;;
1509;SDS011;746;48.688;9.428;2023-04-08T00:05:13;10.87;;;9.93;;
1509;SDS011;746;48.688;9.428;2023-04-08T00:07:35;12.17;;;11.07;;
1509;SDS011;746;48.688;9.428;2023-04-08T00:09:58;11.73;;;10.67;;
1509;SDS011;746;48.688;9.428;2023-04-08T00:12:19;11.60;;;10.40;;
1509;SDS011;746;48.688;9.428;2023-04-08T00:14:43;11.20;;;10.20;;
1509;SDS011;746;48.688;9.428;2023-04-08T00:17:04;11.40;;;10.40;;
1509;SDS011;746;48.688;9.428;2023-04-08T00:19:26;12.00;;;10.90;;
1509;SDS011;746;48.688;9.428;2023-04-08T00:21:47;11.43;;;10.43;;
1509;SDS011;746;48.688;9.428;2023-04-08T00:24:09;12.67;;;11.47;;
1509;SDS011;746;48.688;9.428;2023-04-08T00:26:32;12.70;;;11.40;;
1509;SDS011;746;48.688;9.428;2023-04-08T00:28:53;11.07;;;10.07;;
1509;SDS011;746;48.688;9.428;2023-04-08T00:31:15;12.60;;;11.30;;
1509;SDS011;746;48.688;9.428;2023-04-08T00:33:38;12.27;;;11.07;;
1509;SDS011;746;48.688;9.428;2023-04-08T00:35:59;12.43;;;11.27;;
1509;SDS011;746;48.688;9.428;2023-04-08T00:38:21;12.47;;;11.27;;
1509;SDS011;746;48.688;9.428;2023-04-08T00:40:42;12.87;;;11.57;;
1509;SDS011;746;48.688;9.428;2023-04-08T00:43:05;12.67;;;11.47;;
1509;SDS011;746;48.688;9.428;2023-04-08T00:45:26;13.40;;;12.17;;
1509;SDS011;746;48.688;9.428;2023-04-08T00:47:48;13.17;;;11.77;;
1509;SDS011;746;48.688;9.428;2023-04-08T00:50:11;13.13;;;11.93;;
1509;SDS011;746;48.688;9.428;2023-04-08T00:52:33;12.43;;;11.23;;
1509;SDS011;746;48.688;9.428;2023-04-08T00:54:54;12.93;;;11.63;;
1509;SDS011;746;48.688;9.428;2023-04-08T00:57:21;12.00;;;10.80;;
1509;SDS011;746;48.688;9.428;2023-04-08T00:59:44;12.50;;;11.30;;
1509;SDS011;746;48.688;9.428;2023-04-08T01:02:06;12.93;;;11.50;;
1509;SDS011;746;48.688;9.428;2023-04-08T01:04:36;12.93;;;11.73;;
1509;SDS011;746;48.688;9.428;2023-04-08T01:07:02;13.30;;;12.00;;
1509;SDS011;746;48.688;9.428;2023-04-08T01:09:29;14.23;;;12.90;;
1509;SDS011;746;48.688;9.428;2023-04-08T01:11:52;12.90;;;11.80;;
1509;SDS011;746;48.688;9.428;2023-04-08T01:14:14;13.23;;;12.03;;
1509;SDS011;746;48.688;9.428;2023-04-08T01:16:39;13.50;;;12.20;;
1509;SDS011;746;48.688;9.428;2023-04-08T01:19:01;13.73;;;12.43;;
1509;SDS011;746;48.688;9.428;2023-04-08T01:21:23;13.40;;;12.13;;
1509;SDS011;746;48.688;9.428;2023-04-08T01:23:50;14.07;;;12.67;;
1509;SDS011;746;48.688;9.428;2023-04-08T01:26:19;13.63;;;12.37;;
1509;SDS011;746;48.688;9.428;2023-04-08T01:28:44;14.20;;;12.80;;
1509;SDS011;746;48.688;9.428;2023-04-08T01:31:06;14.53;;;13.03;;
1509;SDS011;746;48.688;9.428;2023-04-08T01:33:28;14.10;;;12.70;;
1509;SDS011;746;48.688;9.428;2023-04-08T01:35:51;15.30;;;13.77;;
1509;SDS011;746;48.688;9.428;2023-04-08T01:38:14;14.47;;;13.10;;
1509;SDS011;746;48.688;9.428;2023-04-08T01:40:38;14.27;;;12.77;;
1509;SDS011;746;48.688;9.428;2023-04-08T01:43:03;15.07;;;13.57;;
1509;SDS011;746;48.688;9.428;2023-04-08T01:45:25;16.83;;;15.13;;
1509;SDS011;746;48.688;9.428;2023-04-08T01:47:46;16.30;;;14.70;;
1509;SDS011;746;48.688;9.428;2023-04-08T01:50:08;16.60;;;14.90;;
1509;SDS011;746;48.688;9.428;2023-04-08T01:52:30;17.57;;;15.77;;
1509;SDS011;746;48.688;9.428;2023-04-08T01:54:52;17.33;;;15.53;;
1509;SDS011;746;48.688;9.428;2023-04-08T01:57:15;18.17;;;16.27;;
1509;SDS011;746;48.688;9.428;2023-04-08T01:59:39;17.10;;;15.30;;
1509;SDS011;746;48.688;9.428;2023-04-08T02:02:00;16.97;;;15.30;;
1509;SDS011;746;48.688;9.428;2023-04-08T02:04:25;18.37;;;16.43;;
1509;SDS011;746;48.688;9.428;2023-04-08T02:06:47;17.47;;;15.67;;
1509;SDS011;746;48.688;9.428;2023-04-08T02:09:08;17.27;;;15.57;;
1509;SDS011;746;48.688;9.428;2023-04-08T02:11:30;17.97;;;15.93;;
1509;SDS011;746;48.688;9.428;2023-04-08T02:13:52;17.47;;;15.57;;
1509;SDS011;746;48.688;9.428;2023-04-08T02:16:15;18.17;;;15.77;;
1509;SDS011;746;48.688;9.428;2023-04-08T02:18:39;17.50;;;15.70;;
1509;SDS011;746;48.688;9.428;2023-04-08T02:21:05;18.07;;;16.17;;
1509;SDS011;746;48.688;9.428;2023-04-08T02:23:29;17.17;;;15.47;;
1509;SDS011;746;48.688;9.428;2023-04-08T02:25:54;17.60;;;15.80;;
1509;SDS011;746;48.688;9.428;2023-04-08T02:28:16;17.27;;;15.43;;
1509;SDS011;746;48.688;9.428;2023-04-08T02:30:40;18.60;;;16.70;;
1509;SDS011;746;48.688;9.428;2023-04-08T02:33:03;18.23;;;16.33;;
1509;SDS011;746;48.688;9.428;2023-04-08T02:35:25;17.47;;;15.47;;
1509;SDS011;746;48.688;9.428;2023-04-08T02:37:48;18.93;;;16.97;;
1509;SDS011;746;48.688;9.428;2023-04-08T02:40:22;19.10;;;17.13;;
1509;SDS011;746;48.688;9.428;2023-04-08T02:42:44;18.40;;;16.10;;
1509;SDS011;746;48.688;9.428;2023-04-08T02:45:06;18.07;;;16.17;;
1509;SDS011;746;48.688;9.428;2023-04-08T02:47:27;18.63;;;16.60;;
1509;SDS011;746;48.688;9.428;2023-04-08T02:49:50;18.30;;;16.40;;
1509;SDS011;746;48.688;9.428;2023-04-08T02:52:13;17.40;;;15.60;;
1509;SDS011;746;48.688;9.428;2023-04-08T02:54:35;18.30;;;16.40;;
1509;SDS011;746;48.688;9.428;2023-04-08T02:56:56;18.20;;;16.20;;
1509;SDS011;746;48.688;9.428;2023-04-08T02:59:17;18.47;;;16.57;;
1509;SDS011;746;48.688;9.428;2023-04-08T03:01:38;20.03;;;17.37;;
1509;SDS011;746;48.688;9.428;2023-04-08T03:03:59;19.57;;;17.50;;
1509;SDS011;746;48.688;9.428;2023-04-08T03:06:23;18.37;;;16.47;;
1509;SDS011;746;48.688;9.428;2023-04-08T03:08:44;18.73;;;16.50;;
1509;SDS011;746;48.688;9.428;2023-04-08T03:11:09;18.47;;;16.57;;
1509;SDS011;746;48.688;9.428;2023-04-08T03:13:31;19.80;;;17.70;;
1509;SDS011;746;48.688;9.428;2023-04-08T03:15:53;19.50;;;17.50;;
1509;SDS011;746;48.688;9.428;2023-04-08T03:18:16;18.73;;;16.73;;
1509;SDS011;746;48.688;9.428;2023-04-08T03:20:38;18.83;;;16.90;;
1509;SDS011;746;48.688;9.428;2023-04-08T03:23:00;19.10;;;17.10;;
1509;SDS011;746;48.688;9.428;2023-04-08T03:25:21;19.07;;;16.60;;
1509;SDS011;746;48.688;9.428;2023-04-08T03:27:43;20.53;;;18.33;;
1509;SDS011;746;48.688;9.428;2023-04-08T03:30:04;20.53;;;18.07;;
1509;SDS011;746;48.688;9.428;2023-04-08T03:32:26;19.53;;;17.50;;
1509;SDS011;746;48.688;9.428;2023-04-08T03:34:47;21.40;;;18.57;;
1509;SDS011;746;48.688;9.428;2023-04-08T03:37:10;18.07;;;16.20;;
1509;SDS011;746;48.688;9.428;2023-04-08T03:39:33;20.17;;;17.27;;
1509;SDS011;746;48.688;9.428;2023-04-08T03:41:54;21.37;;;18.67;;
1509;SDS011;746;48.688;9.428;2023-04-08T03:44:16;18.47;;;16.57;;
1509;SDS011;746;48.688;9.428;2023-04-08T03:46:37;19.23;;;17.33;;
1509;SDS011;746;48.688;9.428;2023-04-08T03:48:59;20.13;;;18.03;;
1509;SDS011;746;48.688;9.428;2023-04-08T03:51:20;19.70;;;17.63;;
1509;SDS011;746;48.688;9.428;2023-04-08T03:53:41;20.13;;;17.97;;
1509;SDS011;746;48.688;9.428;2023-04-08T03:56:04;20.00;;;17.97;;
1509;SDS011;746;48.688;9.428;2023-04-08T03:58:26;20.50;;;18.30;;
1509;SDS011;746;48.688;9.428;2023-04-08T04:00:49;19.97;;;17.83;;
1509;SDS011;746;48.688;9.428;2023-04-08T04:03:10;20.23;;;17.67;;
1509;SDS011;746;48.688;9.428;2023-04-08T04:05:32;20.57;;;17.87;;
1509;SDS011;746;48.688;9.428;2023-04-08T04:07:54;19.50;;;17.33;;
1509;SDS011;746;48.688;9.428;2023-04-08T04:10:20;18.90;;;16.90;;
1509;SDS011;746;48.688;9.428;2023-04-08T04:12:42;18.63;;;16.70;;
1509;SDS011;746;48.688;9.428;2023-04-08T04:15:05;19.27;;;17.10;;
1509;SDS011;746;48.688;9.428;2023-04-08T04:17:28;18.67;;;16.73;;
1509;SDS011;746;48.688;9.428;2023-04-08T04:19:49;19.33;;;16.87;;
1509;SDS011;746;48.688;9.428;2023-04-08T04:22:12;18.73;;;16.73;;
1509;SDS011;746;48.688;9.428;2023-04-08T04:24:33;18.50;;;16.47;;
1509;SDS011;746;48.688;9.428;2023-04-08T04:26:55;18.37;;;16.37;;
1509;SDS011;746;48.688;9.428;2023-04-08T04:29:17;19.80;;;17.70;;
1509;SDS011;746;48.688;9.428;2023-04-08T04:31:39;20.47;;;18.27;;
1509;SDS011;746;48.688;9.428;2023-04-08T04:34:01;20.20;;;17.33;;
1509;SDS011;746;48.688;9.428;2023-04-08T04:36:23;19.07;;;17.03;;
1509;SDS011;746;48.688;9.428;2023-04-08T04:38:44;20.23;;;17.73;;
1509;SDS011;746;48.688;9.428;2023-04-08T04:41:08;21.17;;;18.40;;
1509;SDS011;746;48.688;9.428;2023-04-08T04:43:29;18.30;;;16.40;;
1509;SDS011;746;48.688;9.428;2023-04-08T04:45:52;21.10;;;18.73;;
1509;SDS011;746;48.688;9.428;2023-04-08T04:48:14;21.27;;;18.67;;
1509;SDS011;746;48.688;9.428;2023-04-08T04:50:35;23.77;;;20.43;;
1509;SDS011;746;48.688;9.428;2023-04-08T04:52:56;21.63;;;19.30;;
1509;SDS011;746;48.688;9.428;2023-04-08T04:55:18;22.97;;;19.77;;
1509;SDS011;746;48.688;9.428;2023-04-08T04:57:41;20.80;;;18.40;;
1509;SDS011;746;48.688;9.428;2023-04-08T05:00:03;21.93;;;18.57;;
1509;SDS011;746;48.688;9.428;2023-04-08T05:02:26;22.90;;;18.93;;
1509;SDS011;746;48.688;9.428;2023-04-08T05:04:50;22.90;;;19.17;;
1509;SDS011;746;48.688;9.428;2023-04-08T05:07:12;23.77;;;20.10;;
1509;SDS011;746;48.688;9.428;2023-04-08T05:09:34;22.57;;;19.17;;
1509;SDS011;746;48.688;9.428;2023-04-08T05:11:56;30.60;;;25.37;;
1509;SDS011;746;48.688;9.428;2023-04-08T05:14:17;26.27;;;22.80;;
1509;SDS011;746;48.688;9.428;2023-04-08T05:16:39;22.30;;;19.67;;
1509;SDS011;746;48.688;9.428;2023-04-08T05:19:01;27.23;;;21.90;;
1509;SDS011;746;48.688;9.428;2023-04-08T05:21:23;25.67;;;21.23;;
1509;SDS011;746;48.688;9.428;2023-04-08T05:23:44;22.77;;;19.30;;
1509;SDS011;746;48.688;9.428;2023-04-08T05:26:06;22.67;;;18.57;;
1509;SDS011;746;48.688;9.428;2023-04-08T05:28:27;23.00;;;19.00;;
1509;SDS011;746;48.688;9.428;2023-04-08T05:30:49;25.73;;;20.53;;
1509;SDS011;746;48.688;9.428;2023-04-08T05:33:11;24.27;;;19.03;;
1509;SDS011;746;48.688;9.428;2023-04-08T05:35:33;24.57;;;20.77;;
1509;SDS011;746;48.688;9.428;2023-04-08T05:37:55;26.60;;;19.73;;
1509;SDS011;746;48.688;9.428;2023-04-08T05:40:16;25.57;;;20.77;;
1509;SDS011;746;48.688;9.428;2023-04-08T05:42:37;26.13;;;20.17;;
1509;SDS011;746;48.688;9.428;2023-04-08T05:45:01;25.23;;;21.07;;
1509;SDS011;746;48.688;9.428;2023-04-08T05:47:22;24.67;;;20.00;;
1509;SDS011;746;48.688;9.428;2023-04-08T05:49:43;27.93;;;21.87;;
1509;SDS011;746;48.688;9.428;2023-04-08T05:52:06;26.40;;;20.73;;
1509;SDS011;746;48.688;9.428;2023-04-08T05:54:27;25.10;;;20.37;;
1509;SDS011;746;48.688;9.428;2023-04-08T05:56:49;27.43;;;20.93;;
1509;SDS011;746;48.688;9.428;2023-04-08T05:59:10;23.77;;;18.77;;
1509;SDS011;746;48.688;9.428;2023-04-08T06:01:32;18.87;;;16.33;;
1509;SDS011;746;48.688;9.428;2023-04-08T06:03:53;21.27;;;16.83;;
1509;SDS011;746;48.688;9.428;2023-04-08T06:06:16;18.37;;;15.03;;
1509;SDS011;746;48.688;9.428;2023-04-08T06:08:38;19.97;;;15.47;;
1509;SDS011;746;48.688;9.428;2023-04-08T06:10:59;17.73;;;15.80;;
1509;SDS011;746;48.688;9.428;2023-04-08T06:13:22;20.00;;;16.33;;
1509;SDS011;746;48.688;9.428;2023-04-08T06:15:44;19.53;;;17.00;;
1509;SDS011;746;48.688;9.428;2023-04-08T06:18:07;20.33;;;18.07;;
1509;SDS011;746;48.688;9.428;2023-04-08T06:20:29;21.00;;;16.67;;
1509;SDS011;746;48.688;9.428;2023-04-08T06:22:50;21.60;;;17.93;;
1509;SDS011;746;48.688;9.428;2023-04-08T06:25:13;21.60;;;17.07;;
1509;SDS011;746;48.688;9.428;2023-04-08T06:27:34;20.33;;;18.10;;
1509;SDS011;746;48.688;9.428;2023-04-08T06:29:55;20.73;;;17.40;;
1509;SDS011;746;48.688;9.428;2023-04-08T06:32:17;23.20;;;19.20;;
1509;SDS011;746;48.688;9.428;2023-04-08T06:34:38;23.37;;;18.90;;
1509;SDS011;746;48.688;9.428;2023-04-08T06:36:59;21.70;;;17.30;;
1509;SDS011;746;48.688;9.428;2023-04-08T06:39:20;21.83;;;18.33;;
1509;SDS011;746;48.688;9.428;2023-04-08T06:41:43;19.87;;;17.37;;
1509;SDS011;746;48.688;9.428;2023-04-08T06:44:04;19.90;;;17.07;;
1509;SDS011;746;48.688;9.428;2023-04-08T06:46:25;22.97;;;18.63;;
1509;SDS011;746;48.688;9.428;2023-04-08T06:48:47;21.37;;;18.00;;
1509;SDS011;746;48.688;9.428;2023-04-08T06:51:09;23.27;;;17.53;;
1509;SDS011;746;48.688;9.428;2023-04-08T06:53:30;21.83;;;17.90;;
1509;SDS011;746;48.688;9.428;2023-04-08T06:55:52;22.80;;;19.57;;
1509;SDS011;746;48.688;9.428;2023-04-08T06:58:15;23.20;;;19.30;;
1509;SDS011;746;48.688;9.428;2023-04-08T07:00:36;20.97;;;18.77;;
1509;SDS011;746;48.688;9.428;2023-04-08T07:02:58;21.53;;;18.10;;
1509;SDS011;746;48.688;9.428;2023-04-08T07:05:19;21.67;;;18.23;;
1509;SDS011;746;48.688;9.428;2023-04-08T07:07:40;21.47;;;18.00;;
1509;SDS011;746;48.688;9.428;2023-04-08T07:10:02;21.33;;;18.87;;
1509;SDS011;746;48.688;9.428;2023-04-08T07:12:23;19.77;;;17.67;;
1509;SDS011;746;48.688;9.428;2023-04-08T07:14:46;20.43;;;17.83;;
1509;SDS011;746;48.688;9.428;2023-04-08T07:17:07;19.67;;;17.50;;
1509;SDS011;746;48.688;9.428;2023-04-08T07:19:29;21.33;;;18.07;;
1509;SDS011;746;48.688;9.428;2023-04-08T07:21:50;18.10;;;16.17;;
1509;SDS011;746;48.688;9.428;2023-04-08T07:24:11;16.93;;;15.13;;
1509;SDS011;746;48.688;9.428;2023-04-08T07:26:33;16.43;;;14.37;;
1509;SDS011;746;48.688;9.428;2023-04-08T07:28:54;16.30;;;14.60;;
1509;SDS011;746;48.688;9.428;2023-04-08T07:31:17;15.50;;;13.90;;
1509;SDS011;746;48.688;9.428;2023-04-08T07:33:38;17.27;;;13.83;;
1509;SDS011;746;48.688;9.428;2023-04-08T07:36:00;15.73;;;14.13;;
1509;SDS011;746;48.688;9.428;2023-04-08T07:38:21;14.93;;;13.33;;
1509;SDS011;746;48.688;9.428;2023-04-08T07:40:44;15.27;;;13.77;;
1509;SDS011;746;48.688;9.428;2023-04-08T07:43:05;16.93;;;14.97;;
1509;SDS011;746;48.688;9.428;2023-04-08T07:45:27;15.17;;;13.60;;
1509;SDS011;746;48.688;9.428;2023-04-08T07:47:50;16.83;;;14.93;;
1509;SDS011;746;48.688;9.428;2023-04-08T07:50:12;15.37;;;13.77;;
1509;SDS011;746;48.688;9.428;2023-04-08T07:52:33;16.57;;;14.27;;
1509;SDS011;746;48.688;9.428;2023-04-08T07:54:55;15.90;;;13.00;;
1509;SDS011;746;48.688;9.428;2023-04-08T07:57:16;18.70;;;14.00;;
1509;SDS011;746;48.688;9.428;2023-04-08T07:59:37;14.50;;;13.00;;
1509;SDS011;746;48.688;9.428;2023-04-08T08:01:59;14.93;;;13.30;;
1509;SDS011;746;48.688;9.428;2023-04-08T08:04:21;15.03;;;13.43;;
1509;SDS011;746;48.688;9.428;2023-04-08T08:06:45;15.93;;;14.17;;
1509;SDS011;746;48.688;9.428;2023-04-08T08:09:07;14.70;;;13.10;;
1509;SDS011;746;48.688;9.428;2023-04-08T08:11:28;14.97;;;13.37;;
1509;SDS011;746;48.688;9.428;2023-04-08T08:13:49;15.07;;;13.47;;
1509;SDS011;746;48.688;9.428;2023-04-08T08:16:11;15.37;;;13.80;;
1509;SDS011;746;48.688;9.428;2023-04-08T08:18:33;15.07;;;13.57;;
1509;SDS011;746;48.688;9.428;2023-04-08T08:20:55;15.77;;;14.17;;
1509;SDS011;746;48.688;9.428;2023-04-08T08:23:16;14.50;;;13.00;;
1509;SDS011;746;48.688;9.428;2023-04-08T08:25:38;14.53;;;13.03;;
1509;SDS011;746;48.688;9.428;2023-04-08T08:27:59;15.67;;;14.07;;
1509;SDS011;746;48.688;9.428;2023-04-08T08:30:21;16.03;;;14.27;;
1509;SDS011;746;48.688;9.428;2023-04-08T08:32:42;16.13;;;14.60;;
1509;SDS011;746;48.688;9.428;2023-04-08T08:35:04;16.20;;;14.43;;
1509;SDS011;746;48.688;9.428;2023-04-08T08:37:28;15.80;;;14.30;;
1509;SDS011;746;48.688;9.428;2023-04-08T08:39:49;16.33;;;14.67;;
1509;SDS011;746;48.688;9.428;2023-04-08T08:42:17;16.40;;;14.70;;
1509;SDS011;746;48.688;9.428;2023-04-08T08:44:39;16.20;;;14.60;;
1509;SDS011;746;48.688;9.428;2023-04-08T08:47:00;15.57;;;14.07;;
1509;SDS011;746;48.688;9.428;2023-04-08T08:49:22;16.17;;;14.57;;
1509;SDS011;746;48.688;9.428;2023-04-08T08:51:44;15.20;;;13.70;;
1509;SDS011;746;48.688;9.428;2023-04-08T08:54:07;14.97;;;13.47;;
1509;SDS011;746;48.688;9.428;2023-04-08T08:56:28;15.40;;;13.77;;
1509;SDS011;746;48.688;9.428;2023-04-08T08:58:49;15.37;;;13.80;;
1509;SDS011;746;48.688;9.428;2023-04-08T09:01:29;16.17;;;14.57;;
1509;SDS011;746;48.688;9.428;2023-04-08T09:03:57;15.37;;;13.80;;
1509;SDS011;746;48.688;9.428;2023-04-08T09:06:26;15.10;;;13.70;;
1509;SDS011;746;48.688;9.428;2023-04-08T09:08:47;14.87;;;13.47;;
1509;SDS011;746;48.688;9.428;2023-04-08T09:11:11;15.10;;;13.70;;
1509;SDS011;746;48.688;9.428;2023-04-08T09:13:34;15.80;;;14.27;;
1509;SDS011;746;48.688;9.428;2023-04-08T09:16:00;15.83;;;14.30;;
1509;SDS011;746;48.688;9.428;2023-04-08T09:18:22;15.50;;;14.07;;
1509;SDS011;746;48.688;9.428;2023-04-08T09:20:50;15.20;;;13.70;;
1509;SDS011;746;48.688;9.428;2023-04-08T09:23:12;15.83;;;14.33;;
1509;SDS011;746;48.688;9.428;2023-04-08T09:25:33;16.03;;;14.37;;
1509;SDS011;746;48.688;9.428;2023-04-08T09:27:56;15.30;;;13.80;;
1509;SDS011;746;48.688;9.428;2023-04-08T09:30:18;16.30;;;14.13;;
1509;SDS011;746;48.688;9.428;2023-04-08T09:32:45;16.37;;;14.67;;
1509;SDS011;746;48.688;9.428;2023-04-08T09:35:07;15.60;;;14.00;;
1509;SDS011;746;48.688;9.428;2023-04-08T09:37:29;14.30;;;12.93;;
1509;SDS011;746;48.688;9.428;2023-04-08T09:39:50;18.77;;;14.70;;
1509;SDS011;746;48.688;9.428;2023-04-08T09:42:11;15.43;;;13.80;;
1509;SDS011;746;48.688;9.428;2023-04-08T09:44:34;15.33;;;13.83;;
1509;SDS011;746;48.688;9.428;2023-04-08T09:47:00;15.00;;;13.50;;
1509;SDS011;746;48.688;9.428;2023-04-08T09:49:25;15.50;;;14.00;;
1509;SDS011;746;48.688;9.428;2023-04-08T09:51:47;14.73;;;13.30;;
1509;SDS011;746;48.688;9.428;2023-04-08T09:54:11;13.97;;;12.57;;
1509;SDS011;746;48.688;9.428;2023-04-08T09:56:34;14.57;;;13.17;;
1509;SDS011;746;48.688;9.428;2023-04-08T09:58:58;14.90;;;13.50;;
1509;SDS011;746;48.688;9.428;2023-04-08T10:01:27;14.83;;;13.40;;
1509;SDS011;746;48.688;9.428;2023-04-08T10:03:53;15.30;;;13.53;;
1509;SDS011;746;48.688;9.428;2023-04-08T10:06:15;15.40;;;12.90;;
1509;SDS011;746;48.688;9.428;2023-04-08T10:08:37;14.47;;;13.03;;
1509;SDS011;746;48.688;9.428;2023-04-08T10:10:59;14.83;;;13.33;;
1509;SDS011;746;48.688;9.428;2023-04-08T10:13:20;14.77;;;12.90;;
1509;SDS011;746;48.688;9.428;2023-04-08T10:15:42;15.57;;;14.10;;
1509;SDS011;746;48.688;9.428;2023-04-08T10:20:47;13.57;;;12.27;;
1509;SDS011;746;48.688;9.428;2023-04-08T10:23:09;14.03;;;12.50;;
1509;SDS011;746;48.688;9.428;2023-04-08T10:25:32;14.20;;;12.80;;
1509;SDS011;746;48.688;9.428;2023-04-08T10:27:54;15.07;;;12.67;;
1509;SDS011;746;48.688;9.428;2023-04-08T10:32:51;13.80;;;12.50;;
1509;SDS011;746;48.688;9.428;2023-04-08T10:35:12;14.70;;;13.30;;
1509;SDS011;746;48.688;9.428;2023-04-08T10:37:35;13.70;;;12.30;;
1509;SDS011;746;48.688;9.428;2023-04-08T10:39:56;13.67;;;12.37;;
1509;SDS011;746;48.688;9.428;2023-04-08T10:42:17;14.97;;;13.47;;
1509;SDS011;746;48.688;9.428;2023-04-08T10:44:43;16.27;;;14.77;;
1509;SDS011;746;48.688;9.428;2023-04-08T10:47:04;15.37;;;13.90;;
1509;SDS011;746;48.688;9.428;2023-04-08T10:49:32;14.20;;;12.80;;
1509;SDS011;746;48.688;9.428;2023-04-08T10:51:53;16.00;;;14.40;;
1509;SDS011;746;48.688;9.428;2023-04-08T10:54:16;14.10;;;12.80;;
1509;SDS011;746;48.688;9.428;2023-04-08T10:56:42;14.47;;;13.17;;
1509;SDS011;746;48.688;9.428;2023-04-08T10:59:04;15.10;;;13.57;;
1509;SDS011;746;48.688;9.428;2023-04-08T11:01:25;14.83;;;13.43;;
1509;SDS011;746;48.688;9.428;2023-04-08T11:03:48;14.60;;;13.30;;
1509;SDS011;746;48.688;9.428;2023-04-08T11:06:10;15.20;;;13.80;;
1509;SDS011;746;48.688;9.428;2023-04-08T11:08:32;15.07;;;13.57;;
1509;SDS011;746;48.688;9.428;2023-04-08T11:10:54;15.80;;;14.03;;
1509;SDS011;746;48.688;9.428;2023-04-08T11:13:17;14.97;;;13.47;;
1509;SDS011;746;48.688;9.428;2023-04-08T11:15:38;14.67;;;12.93;;
1509;SDS011;746;48.688;9.428;2023-04-08T11:17:59;16.43;;;14.23;;
1509;SDS011;746;48.688;9.428;2023-04-08T11:20:21;14.37;;;12.97;;
1509;SDS011;746;48.688;9.428;2023-04-08T11:22:42;14.03;;;12.73;;
1509;SDS011;746;48.688;9.428;2023-04-08T11:25:04;14.73;;;13.33;;
1509;SDS011;746;48.688;9.428;2023-04-08T11:27:28;14.83;;;13.13;;
1509;SDS011;746;48.688;9.428;2023-04-08T11:29:50;13.40;;;12.10;;
1509;SDS011;746;48.688;9.428;2023-04-08T11:32:11;14.50;;;13.10;;
1509;SDS011;746;48.688;9.428;2023-04-08T11:34:33;13.13;;;11.93;;
1509;SDS011;746;48.688;9.428;2023-04-08T11:36:55;14.60;;;13.30;;
1509;SDS011;746;48.688;9.428;2023-04-08T11:39:17;13.93;;;12.00;;
1509;SDS011;746;48.688;9.428;2023-04-08T11:41:42;12.47;;;11.37;;
1509;SDS011;746;48.688;9.428;2023-04-08T11:44:04;12.10;;;10.90;;
1509;SDS011;746;48.688;9.428;2023-04-08T11:46:26;12.70;;;11.50;;
1509;SDS011;746;48.688;9.428;2023-04-08T11:48:57;12.97;;;11.33;;
1509;SDS011;746;48.688;9.428;2023-04-08T11:51:18;12.03;;;10.83;;
1509;SDS011;746;48.688;9.428;2023-04-08T11:53:40;11.87;;;10.73;;
1509;SDS011;746;48.688;9.428;2023-04-08T11:56:16;11.67;;;10.47;;
1509;SDS011;746;48.688;9.428;2023-04-08T11:58:37;12.77;;;10.93;;
1509;SDS011;746;48.688;9.428;2023-04-08T12:01:00;12.43;;;11.23;;
1509;SDS011;746;48.688;9.428;2023-04-08T12:03:21;10.70;;;9.63;;
1509;SDS011;746;48.688;9.428;2023-04-08T12:05:43;11.90;;;10.47;;
1509;SDS011;746;48.688;9.428;2023-04-08T12:08:05;11.27;;;10.20;;
1509;SDS011;746;48.688;9.428;2023-04-08T12:10:26;11.93;;;10.27;;
1509;SDS011;746;48.688;9.428;2023-04-08T12:12:47;11.50;;;10.30;;
1509;SDS011;746;48.688;9.428;2023-04-08T12:15:09;12.47;;;10.40;;
1509;SDS011;746;48.688;9.428;2023-04-08T12:17:31;11.43;;;10.23;;
1509;SDS011;746;48.688;9.428;2023-04-08T12:19:52;11.83;;;10.57;;
1509;SDS011;746;48.688;9.428;2023-04-08T12:22:14;11.10;;;9.97;;
1509;SDS011;746;48.688;9.428;2023-04-08T12:24:35;13.13;;;10.10;;
1509;SDS011;746;48.688;9.428;2023-04-08T12:26:56;10.97;;;9.90;;
1509;SDS011;746;48.688;9.428;2023-04-08T12:29:17;10.83;;;9.83;;
1509;SDS011;746;48.688;9.428;2023-04-08T12:31:38;11.73;;;10.53;;
1509;SDS011;746;48.688;9.428;2023-04-08T12:34:01;11.73;;;10.63;;
1509;SDS011;746;48.688;9.428;2023-04-08T12:36:22;12.77;;;11.50;;
1509;SDS011;746;48.688;9.428;2023-04-08T12:38:44;12.30;;;11.13;;
1509;SDS011;746;48.688;9.428;2023-04-08T12:41:05;12.23;;;11.13;;
1509;SDS011;746;48.688;9.428;2023-04-08T12:43:26;11.13;;;9.70;;
1509;SDS011;746;48.688;9.428;2023-04-08T12:45:48;11.27;;;10.07;;
1509;SDS011;746;48.688;9.428;2023-04-08T12:48:09;11.03;;;9.93;;
1509;SDS011;746;48.688;9.428;2023-04-08T12:50:32;11.60;;;10.50;;
1509;SDS011;746;48.688;9.428;2023-04-08T12:52:53;11.53;;;10.53;;
1509;SDS011;746;48.688;9.428;2023-04-08T12:55:14;15.43;;;12.27;;
1509;SDS011;746;48.688;9.428;2023-04-08T12:57:37;13.90;;;12.43;;
1509;SDS011;746;48.688;9.428;2023-04-08T12:59:59;13.50;;;12.20;;
1509;SDS011;746;48.688;9.428;2023-04-08T13:02:20;13.77;;;12.47;;
1509;SDS011;746;48.688;9.428;2023-04-08T13:04:42;13.83;;;12.53;;
1509;SDS011;746;48.688;9.428;2023-04-08T13:07:04;12.40;;;11.20;;
1509;SDS011;746;48.688;9.428;2023-04-08T13:09:26;13.23;;;11.90;;
1509;SDS011;746;48.688;9.428;2023-04-08T13:11:49;13.13;;;11.83;;
1509;SDS011;746;48.688;9.428;2023-04-08T13:14:11;13.50;;;12.20;;
1509;SDS011;746;48.688;9.428;2023-04-08T13:16:32;12.33;;;11.13;;
1509;SDS011;746;48.688;9.428;2023-04-08T13:18:54;11.83;;;10.63;;
1509;SDS011;746;48.688;9.428;2023-04-08T13:21:15;12.33;;;11.03;;
1509;SDS011;746;48.688;9.428;2023-04-08T13:23:38;12.27;;;11.07;;
1509;SDS011;746;48.688;9.428;2023-04-08T13:25:59;13.10;;;11.80;;
1509;SDS011;746;48.688;9.428;2023-04-08T13:28:21;11.87;;;10.77;;
1509;SDS011;746;48.688;9.428;2023-04-08T13:30:42;12.37;;;11.17;;
1509;SDS011;746;48.688;9.428;2023-04-08T13:33:03;12.00;;;10.90;;
1509;SDS011;746;48.688;9.428;2023-04-08T13:35:25;13.90;;;12.47;;
1509;SDS011;746;48.688;9.428;2023-04-08T13:37:46;13.13;;;11.93;;
1509;SDS011;746;48.688;9.428;2023-04-08T13:40:09;13.00;;;11.73;;
1509;SDS011;746;48.688;9.428;2023-04-08T13:42:31;13.77;;;12.57;;
1509;SDS011;746;48.688;9.428;2023-04-08T13:44:53;12.90;;;11.60;;
1509;SDS011;746;48.688;9.428;2023-04-08T13:47:14;23.47;;;21.10;;
1509;SDS011;746;48.688;9.428;2023-04-08T13:49:36;17.33;;;15.63;;
1509;SDS011;746;48.688;9.428;2023-04-08T13:51:57;15.00;;;13.50;;
1509;SDS011;746;48.688;9.428;2023-04-08T13:54:19;13.80;;;12.50;;
1509;SDS011;746;48.688;9.428;2023-04-08T13:56:42;15.00;;;13.50;;
1509;SDS011;746;48.688;9.428;2023-04-08T13:59:03;12.27;;;11.07;;
1509;SDS011;746;48.688;9.428;2023-04-08T14:01:24;12.60;;;11.40;;
1509;SDS011;746;48.688;9.428;2023-04-08T14:03:46;13.57;;;12.17;;
1509;SDS011;746;48.688;9.428;2023-04-08T14:06:08;14.50;;;13.00;;
1509;SDS011;746;48.688;9.428;2023-04-08T14:08:30;13.17;;;11.77;;
1509;SDS011;746;48.688;9.428;2023-04-08T14:10:54;12.20;;;11.03;;
1509;SDS011;746;48.688;9.428;2023-04-08T14:13:17;12.10;;;11.03;;
1509;SDS011;746;48.688;9.428;2023-04-08T14:15:38;12.50;;;11.23;;
1509;SDS011;746;48.688;9.428;2023-04-08T14:17:59;13.07;;;10.87;;
1509;SDS011;746;48.688;9.428;2023-04-08T14:20:21;12.20;;;11.10;;
1509;SDS011;746;48.688;9.428;2023-04-08T14:22:42;12.10;;;10.90;;
1509;SDS011;746;48.688;9.428;2023-04-08T14:25:04;12.17;;;11.07;;
1509;SDS011;746;48.688;9.428;2023-04-08T14:27:25;12.27;;;11.07;;
1509;SDS011;746;48.688;9.428;2023-04-08T14:29:48;12.60;;;11.30;;
1509;SDS011;746;48.688;9.428;2023-04-08T14:32:09;12.33;;;10.97;;
1509;SDS011;746;48.688;9.428;2023-04-08T14:34:31;11.17;;;10.23;;
1509;SDS011;746;48.688;9.428;2023-04-08T14:36:53;12.10;;;10.90;;